Celestyal Crystal — 9HA2978 — position and weather

sailwx.info

Track history (hours):
 
Tides and Currents Weather Stations Pressure Air Temp Water Temp Dewpoint Dewpoint Depression Visibility Wind Speed Wind Dir Waves Ship Positions

Celestyal Crystal

Last reported at 2015-Aug-30 02:10 UTC. Time now 2015-Aug-30 10:00 UTC.
Position N 36°60' E 024°54'.

Length 162 m; draft 6.1 m.

Type: Passenger vessel. MMSI: 229001000.

Date/timePositionNaut miles runAvg speedWind from/ knotsBaromVisibWave heightAir tempDewpointWater temp
2015-Aug-30 02:10N 36°60' E 024°54'1016.0
2015-Aug-30 01:34N 37°06' E 025°04'1716.9
2015-Aug-30 00:33N 37°14' E 025°22'1716.7
2015-Aug-29 23:33N 37°21' E 025°41'50 2.2
2015-Aug-29 01:20N 37°49' E 026°34'1815.5
2015-Aug-29 00:10N 37°44' E 026°12'1015.5
2015-Aug-28 23:33N 37°41' E 025°60'1615.7
2015-Aug-28 22:33N 37°37' E 025°41'1615.9
2015-Aug-28 21:33N 37°32' E 025°22'5 4.7
2015-Aug-28 20:32N 37°28' E 025°20'0 0.0
2015-Aug-28 19:32N 37°28' E 025°20'0 0.0
2015-Aug-28 18:32N 37°28' E 025°20'0 0.0
2015-Aug-28 17:32N 37°28' E 025°20'0 0.0
2015-Aug-28 16:32N 37°28' E 025°20'0 0.0
2015-Aug-28 15:32N 37°28' E 025°20'2 2.1
2015-Aug-28 14:33N 37°29' E 025°17'1716.7
2015-Aug-28 13:33N 37°31' E 024°56'5016.5
2015-Aug-28 10:32N 37°37' E 023°54'1616.0
2015-Aug-28 09:33N 37°47' E 023°39'10 9.4
2015-Aug-28 08:32N 37°56' E 023°38'0 0.0
2015-Aug-28 07:32N 37°56' E 023°38'0 0.0
2015-Aug-28 06:20N 37°56' E 023°38'0 0.0
2015-Aug-28 05:32N 37°56' E 023°38'0 0.0
2015-Aug-28 04:32N 37°56' E 023°38'0 0.0
2015-Aug-28 03:32N 37°56' E 023°38'0 0.0
2015-Aug-28 02:29N 37°56' E 023°38'2 2.1
2015-Aug-28 01:33N 37°55' E 023°37'1716.9
2015-Aug-28 00:33N 37°39' E 023°47'7016.8
2015-Aug-27 20:22N 36°56' E 024°57'3116.9
2015-Aug-27 18:33N 36°31' E 025°20'7 7.1
2015-Aug-27 17:32N 36°25' E 025°25'0 0.2
2015-Aug-27 16:32N 36°25' E 025°25'1 0.9
2015-Aug-27 15:33N 36°26' E 025°24'1 1.1
2015-Aug-27 14:33N 36°25' E 025°25'0 0.2
2015-Aug-27 13:32N 36°25' E 025°25'8 7.8
2015-Aug-27 12:33N 36°32' E 025°20'8 0.8
2015-Aug-27 02:33N 36°38' E 025°26'9 8.5
2015-Aug-27 01:33N 36°40' E 025°37'8 8.2
2015-Aug-27 00:34N 36°41' E 025°47'8 8.2
2015-Aug-26 23:32N 36°43' E 025°57'8 8.4
2015-Aug-26 22:33N 36°44' E 026°07'8 8.1
2015-Aug-26 21:33N 36°46' E 026°17'8 8.0
2015-Aug-26 20:33N 36°48' E 026°27'8 7.6
2015-Aug-26 19:33N 36°49' E 026°36'7 7.0
2015-Aug-26 18:33N 36°50' E 026°45'6 5.9
2015-Aug-26 17:33N 36°51' E 026°52'8 7.8
2015-Aug-26 16:33N 36°53' E 027°02'11 9.8
2015-Aug-26 15:28N 36°56' E 027°14'92 2.3
2015-Aug-24 23:33N 37°49' E 025°40'1313.3
2015-Aug-24 22:33N 37°40' E 025°28'1413.5
2015-Aug-24 21:34N 37°31' E 025°15'1514.6
2015-Aug-24 20:33N 37°26' E 024°58'1 0.7
2015-Aug-24 19:19N 37°26' E 024°57'0 0.0
2015-Aug-24 15:14N 37°26' E 024°57'3 4.8
2015-Aug-24 14:34N 37°29' E 024°58'40 3.0
2015-Aug-24 01:11N 37°29' E 024°08'49 2.1
2015-Aug-23 01:33N 37°05' E 025°02'1818.2
2015-Aug-23 00:33N 37°14' E 025°22'1818.3
2015-Aug-22 23:33N 37°21' E 025°43'20 0.8
2015-Aug-21 23:14N 37°40' E 025°52'1115.8
2015-Aug-21 22:33N 37°36' E 025°40'1515.3
2015-Aug-21 21:33N 37°32' E 025°21'4 4.2
2015-Aug-21 20:31N 37°28' E 025°20'0 0.0
2015-Aug-21 19:31N 37°28' E 025°20'0 0.0
2015-Aug-21 18:31N 37°28' E 025°20'0 0.0
2015-Aug-21 17:31N 37°28' E 025°20'0 0.0
2015-Aug-21 16:31N 37°28' E 025°20'0 0.0
2015-Aug-21 15:33N 37°28' E 025°20'1 0.7
2015-Aug-21 14:33N 37°28' E 025°19'1514.5
2015-Aug-21 13:31N 37°31' E 025°00'3716.1
2015-Aug-21 11:13N 37°31' E 024°14'1317.7
2015-Aug-21 10:27N 37°36' E 023°57'1516.8
2015-Aug-21 09:33N 37°43' E 023°41'1413.7
2015-Aug-21 08:33N 37°56' E 023°38'0 0.1
2015-Aug-21 07:33N 37°56' E 023°38'0 0.0
2015-Aug-21 06:27N 37°56' E 023°38'0 0.0
2015-Aug-21 05:33N 37°56' E 023°38'0 0.0
2015-Aug-21 04:33N 37°56' E 023°38'0 0.0
2015-Aug-21 03:33N 37°56' E 023°38'0 0.0
2015-Aug-21 02:33N 37°56' E 023°38'5 5.4
2015-Aug-21 01:33N 37°51' E 023°39'1716.7
2015-Aug-21 00:34N 37°37' E 023°50'5216.8
2015-Aug-20 21:29N 37°06' E 024°43'1817.2
2015-Aug-20 20:27N 36°54' E 024°59'1617.6
2015-Aug-20 19:32N 36°43' E 025°14'1717.1
2015-Aug-20 18:33N 36°28' E 025°22'4 3.6
2015-Aug-20 17:33N 36°25' E 025°25'0 0.0
2015-Aug-20 16:33N 36°25' E 025°25'0 0.4
2015-Aug-20 15:32N 36°25' E 025°24'0 0.4
2015-Aug-20 14:32N 36°25' E 025°25'0 0.2
2015-Aug-20 13:33N 36°25' E 025°25'7 6.7
2015-Aug-20 12:33N 36°30' E 025°20'8 0.8
2015-Aug-20 02:33N 36°38' E 025°24'  
Track history (hours):
 
Tides and Currents Weather Stations Pressure Air Temp Water Temp Dewpoint Dewpoint Depression Visibility Wind Speed Wind Dir Waves Ship Positions

Celestyal Crystal

Last reported at 2015-Aug-30 02:10 UTC. Time now 2015-Aug-30 10:00 UTC.
Position N 36°60' E 024°54'.

Length 162 m; draft 6.1 m.

Type: Passenger vessel. MMSI: 229001000.

Date/timePositionNaut miles runAvg speedWind from/ knotsBaromVisibWave heightAir tempDewpointWater temp
2015-Aug-30 02:10N 36°60' E 024°54'1016.0
2015-Aug-30 01:34N 37°06' E 025°04'1716.9
2015-Aug-30 00:33N 37°14' E 025°22'1716.7
2015-Aug-29 23:33N 37°21' E 025°41'50 2.2
2015-Aug-29 01:20N 37°49' E 026°34'1815.5
2015-Aug-29 00:10N 37°44' E 026°12'1015.5
2015-Aug-28 23:33N 37°41' E 025°60'1615.7
2015-Aug-28 22:33N 37°37' E 025°41'1615.9
2015-Aug-28 21:33N 37°32' E 025°22'5 4.7
2015-Aug-28 20:32N 37°28' E 025°20'0 0.0
2015-Aug-28 19:32N 37°28' E 025°20'0 0.0
2015-Aug-28 18:32N 37°28' E 025°20'0 0.0
2015-Aug-28 17:32N 37°28' E 025°20'0 0.0
2015-Aug-28 16:32N 37°28' E 025°20'0 0.0
2015-Aug-28 15:32N 37°28' E 025°20'2 2.1
2015-Aug-28 14:33N 37°29' E 025°17'1716.7
2015-Aug-28 13:33N 37°31' E 024°56'5016.5
2015-Aug-28 10:32N 37°37' E 023°54'1616.0
2015-Aug-28 09:33N 37°47' E 023°39'10 9.4
2015-Aug-28 08:32N 37°56' E 023°38'0 0.0
2015-Aug-28 07:32N 37°56' E 023°38'0 0.0
2015-Aug-28 06:20N 37°56' E 023°38'0 0.0
2015-Aug-28 05:32N 37°56' E 023°38'0 0.0
2015-Aug-28 04:32N 37°56' E 023°38'0 0.0
2015-Aug-28 03:32N 37°56' E 023°38'0 0.0
2015-Aug-28 02:29N 37°56' E 023°38'2 2.1
2015-Aug-28 01:33N 37°55' E 023°37'1716.9
2015-Aug-28 00:33N 37°39' E 023°47'7016.8
2015-Aug-27 20:22N 36°56' E 024°57'3116.9
2015-Aug-27 18:33N 36°31' E 025°20'7 7.1
2015-Aug-27 17:32N 36°25' E 025°25'0 0.2
2015-Aug-27 16:32N 36°25' E 025°25'1 0.9
2015-Aug-27 15:33N 36°26' E 025°24'1 1.1
2015-Aug-27 14:33N 36°25' E 025°25'0 0.2
2015-Aug-27 13:32N 36°25' E 025°25'8 7.8
2015-Aug-27 12:33N 36°32' E 025°20'8 0.8
2015-Aug-27 02:33N 36°38' E 025°26'9 8.5
2015-Aug-27 01:33N 36°40' E 025°37'8 8.2
2015-Aug-27 00:34N 36°41' E 025°47'8 8.2
2015-Aug-26 23:32N 36°43' E 025°57'8 8.4
2015-Aug-26 22:33N 36°44' E 026°07'8 8.1
2015-Aug-26 21:33N 36°46' E 026°17'8 8.0
2015-Aug-26 20:33N 36°48' E 026°27'8 7.6
2015-Aug-26 19:33N 36°49' E 026°36'7 7.0
2015-Aug-26 18:33N 36°50' E 026°45'6 5.9
2015-Aug-26 17:33N 36°51' E 026°52'8 7.8
2015-Aug-26 16:33N 36°53' E 027°02'11 9.8
2015-Aug-26 15:28N 36°56' E 027°14'92 2.3
2015-Aug-24 23:33N 37°49' E 025°40'1313.3
2015-Aug-24 22:33N 37°40' E 025°28'1413.5
2015-Aug-24 21:34N 37°31' E 025°15'1514.6
2015-Aug-24 20:33N 37°26' E 024°58'1 0.7
2015-Aug-24 19:19N 37°26' E 024°57'0 0.0
2015-Aug-24 15:14N 37°26' E 024°57'3 4.8
2015-Aug-24 14:34N 37°29' E 024°58'40 3.0
2015-Aug-24 01:11N 37°29' E 024°08'49 2.1
2015-Aug-23 01:33N 37°05' E 025°02'1818.2
2015-Aug-23 00:33N 37°14' E 025°22'1818.3
2015-Aug-22 23:33N 37°21' E 025°43'20 0.8
2015-Aug-21 23:14N 37°40' E 025°52'1115.8
2015-Aug-21 22:33N 37°36' E 025°40'1515.3
2015-Aug-21 21:33N 37°32' E 025°21'4 4.2
2015-Aug-21 20:31N 37°28' E 025°20'0 0.0
2015-Aug-21 19:31N 37°28' E 025°20'0 0.0
2015-Aug-21 18:31N 37°28' E 025°20'0 0.0
2015-Aug-21 17:31N 37°28' E 025°20'0 0.0
2015-Aug-21 16:31N 37°28' E 025°20'0 0.0
2015-Aug-21 15:33N 37°28' E 025°20'1 0.7
2015-Aug-21 14:33N 37°28' E 025°19'1514.5
2015-Aug-21 13:31N 37°31' E 025°00'3716.1
2015-Aug-21 11:13N 37°31' E 024°14'1317.7
2015-Aug-21 10:27N 37°36' E 023°57'1516.8
2015-Aug-21 09:33N 37°43' E 023°41'1413.7
2015-Aug-21 08:33N 37°56' E 023°38'0 0.1
2015-Aug-21 07:33N 37°56' E 023°38'0 0.0
2015-Aug-21 06:27N 37°56' E 023°38'0 0.0
2015-Aug-21 05:33N 37°56' E 023°38'0 0.0
2015-Aug-21 04:33N 37°56' E 023°38'0 0.0
2015-Aug-21 03:33N 37°56' E 023°38'0 0.0
2015-Aug-21 02:33N 37°56' E 023°38'5 5.4
2015-Aug-21 01:33N 37°51' E 023°39'1716.7
2015-Aug-21 00:34N 37°37' E 023°50'5216.8
2015-Aug-20 21:29N 37°06' E 024°43'1817.2
2015-Aug-20 20:27N 36°54' E 024°59'1617.6
2015-Aug-20 19:32N 36°43' E 025°14'1717.1
2015-Aug-20 18:33N 36°28' E 025°22'4 3.6
2015-Aug-20 17:33N 36°25' E 025°25'0 0.0
2015-Aug-20 16:33N 36°25' E 025°25'0 0.4
2015-Aug-20 15:32N 36°25' E 025°24'0 0.4
2015-Aug-20 14:32N 36°25' E 025°25'0 0.2
2015-Aug-20 13:33N 36°25' E 025°25'7 6.7
2015-Aug-20 12:33N 36°30' E 025°20'8 0.8
2015-Aug-20 02:33N 36°38' E 025°24'  

Dump ship's entire track history